Accueil
METAR-TAF:

METAR-TAF

Aéroports :

Circuit de Zeltweg

Zeltweg, Autriche

latitude: 47-12N, longitude: 014-45E, altitude: 677 m

Observation

Le bulletin a été fait il y a 45 minutes, à 02:50 UTC
Vent 1 kt de ouest/sud-ouest
Température -2°C
Humidité 100%
Pression 1027 hPa
Visibilité: 0500 m
brouillard givrant

METAR: LOXZ 270250Z 24001KT 0500 FZFG FEW002ST SCT300CI M02/M02 Q1027

Heure: 05:35 (03:35 UTC)

Prévision

Le bulletin a été fait il y a 13 heures et 20 minutes, à 14:15 UTC
Prévision valable du 26 à 15 UTC au 26 à 24 UTC
Vent 3 kt de direction variable
Visibilité 10 km ou plus
Quelques nuages à une hauteur de 7000 ft
Nuages fragmentés à une hauteur de 25000 ft

TAF: LOXZ 261415Z 2615/2624 VRB03KT 9999 FEW070 BKN250

Observations et prévisions météorologiques de plus de 4000 aéroports (messages METAR et TAF).

Les stations disponibles sont représentées par des disques jaunes et rouges sur la carte.

Passer la souris dessus pour voir le nom de la station.

Cliquer dessus pour voir les observations et prévisions météorologiques.

Pour changer de carte: cliquez sur les boutons verts avec une croix noire pour zoomer, sur le bouton vert avec un tiret pour effectuer un zoom arrière, ou sur les flèches vertes pour les cartes adjacentes.


METAR-TAF: